createdAt,value
2019-04-28T00:03:32.756Z,10.86
2019-04-28T00:08:34.748Z,10.45
2019-04-28T00:13:36.797Z,10.29
2019-04-28T00:18:38.737Z,10.44
2019-04-28T00:23:42.517Z,10.73
2019-04-28T00:28:44.551Z,11.06
2019-04-28T00:33:46.433Z,11.29
2019-04-28T00:38:48.542Z,11.06
2019-04-28T00:43:51.986Z,11.30
2019-04-28T00:48:54.139Z,11.08
2019-04-28T00:53:56.488Z,11.13
2019-04-28T00:59:01.275Z,11.42
2019-04-28T01:04:03.809Z,11.42
2019-04-28T01:09:06.866Z,11.42
2019-04-28T01:14:11.512Z,11.27
2019-04-28T01:19:20.098Z,11.01
2019-04-28T01:24:22.149Z,11.03
2019-04-28T01:29:24.189Z,11.00
2019-04-28T01:34:26.185Z,10.98
2019-04-28T01:39:29.700Z,10.88
2019-04-28T01:44:31.833Z,10.86
2019-04-28T01:49:33.660Z,10.72
2019-04-28T01:54:35.634Z,10.22
2019-04-28T01:59:37.639Z,9.92
2019-04-28T02:04:40.734Z,9.89
2019-04-28T02:09:42.586Z,9.72
2019-04-28T02:14:44.429Z,9.70
2019-04-28T02:19:46.330Z,9.71
2019-04-28T02:24:48.256Z,9.75
2019-04-28T02:29:50.300Z,9.67
2019-04-28T02:34:52.334Z,9.64
2019-04-28T02:39:54.237Z,9.88
2019-04-28T02:44:56.136Z,10.18
2019-04-28T02:50:00.880Z,10.31
2019-04-28T02:55:03.892Z,10.32
2019-04-28T03:00:06.197Z,9.94
2019-04-28T03:05:11.486Z,9.61
2019-04-28T03:10:12.515Z,9.02
2019-04-28T03:20:35.756Z,8.97
2019-04-28T03:25:40.847Z,8.36
2019-04-28T03:30:47.750Z,8.06
2019-04-28T03:35:53.553Z,7.75
2019-04-28T03:40:53.417Z,7.55
2019-04-28T03:46:03.818Z,7.82
2019-04-28T03:51:05.938Z,8.24
2019-04-28T03:56:07.887Z,8.73
2019-04-28T04:01:10.709Z,9.13
2019-04-28T04:06:12.932Z,9.26
2019-04-28T04:11:20.394Z,9.15
2019-04-28T04:16:32.195Z,8.83
2019-04-28T04:21:34.113Z,8.52
2019-04-28T04:26:36.005Z,8.71
2019-04-28T04:31:37.925Z,9.11
2019-04-28T04:36:41.684Z,9.26
2019-04-28T04:41:43.981Z,9.43
2019-04-28T04:46:46.027Z,9.78
2019-04-28T04:51:50.833Z,9.78
2019-04-28T04:56:53.647Z,9.97
2019-04-28T05:02:02.096Z,9.86
2019-04-28T05:07:04.397Z,10.12
2019-04-28T05:12:06.261Z,10.38
2019-04-28T05:17:08.155Z,9.79
2019-04-28T05:22:10.903Z,9.70
2019-04-28T05:27:12.779Z,9.68
2019-04-28T05:32:14.651Z,10.08
2019-04-28T05:37:16.557Z,10.93
2019-04-28T05:42:19.917Z,11.67
2019-04-28T05:47:22.076Z,12.18
2019-04-28T05:52:29.931Z,12.58
2019-04-28T05:57:53.122Z,13.09
2019-04-28T06:03:12.014Z,13.49
2019-04-28T06:08:20.200Z,13.51
2019-04-28T06:13:23.432Z,13.56
2019-04-28T06:18:25.298Z,13.91
2019-04-28T06:23:27.278Z,14.15
2019-04-28T06:28:29.525Z,14.86
2019-04-28T06:33:31.409Z,15.43
2019-04-28T06:38:33.320Z,16.19
2019-04-28T06:43:35.145Z,16.33
2019-04-28T06:48:37.130Z,16.46
2019-04-28T06:53:38.967Z,16.54
2019-04-28T06:58:41.025Z,16.95
2019-04-28T07:03:43.035Z,16.80
2019-04-28T07:08:45.027Z,17.36
2019-04-28T07:13:46.851Z,17.61
2019-04-28T07:18:48.735Z,17.49
2019-04-28T07:23:50.635Z,17.57
2019-04-28T07:28:52.747Z,17.78
2019-04-28T07:33:54.550Z,17.29
2019-04-28T07:38:56.512Z,17.12
2019-04-28T07:43:58.317Z,17.29
2019-04-28T07:49:00.196Z,17.37
2019-04-28T07:54:04.933Z,16.90
2019-04-28T07:59:06.976Z,17.23
2019-04-28T08:04:09.137Z,17.36
2019-04-28T08:09:13.215Z,17.92
2019-04-28T08:14:15.383Z,17.37
2019-04-28T08:19:17.434Z,16.24
2019-04-28T08:24:19.479Z,16.84
2019-04-28T08:29:21.615Z,16.98
2019-04-28T08:34:23.815Z,17.25
2019-04-28T08:39:27.136Z,17.96
2019-04-28T08:44:29.535Z,17.79
2019-04-28T08:49:31.680Z,17.73
2019-04-28T08:54:33.871Z,17.23
2019-04-28T08:59:36.068Z,17.27
2019-04-28T09:04:38.781Z,17.42
2019-04-28T09:09:41.004Z,17.34
2019-04-28T09:14:43.041Z,17.58
2019-04-28T09:19:45.112Z,18.23
2019-04-28T09:24:48.871Z,17.95
2019-04-28T09:29:50.858Z,17.56
2019-04-28T09:34:52.739Z,17.36
2019-04-28T09:39:59.293Z,17.03
2019-04-28T09:45:03.206Z,17.84
2019-04-28T09:50:05.569Z,17.97
2019-04-28T09:55:07.752Z,18.51
2019-04-28T10:00:11.142Z,18.82
2019-04-28T10:05:13.449Z,18.08
2019-04-28T10:10:16.675Z,18.34
2019-04-28T10:15:18.565Z,18.70
2019-04-28T10:20:20.942Z,19.04
2019-04-28T10:25:23.028Z,18.88
2019-04-28T10:30:25.145Z,19.40
2019-04-28T10:35:27.259Z,19.48
2019-04-28T10:40:34.902Z,19.07
2019-04-28T10:45:44.613Z,19.01
2019-04-28T10:50:46.701Z,19.30
2019-04-28T10:55:48.541Z,19.42
2019-04-28T11:00:50.367Z,19.16
2019-04-28T11:05:52.344Z,19.81
2019-04-28T11:10:55.061Z,19.98
2019-04-28T11:15:57.005Z,19.82
2019-04-28T11:20:58.899Z,19.80
2019-04-28T11:26:00.775Z,20.06
2019-04-28T11:31:02.594Z,20.06
2019-04-28T11:36:04.881Z,19.90
2019-04-28T11:41:07.554Z,19.69
2019-04-28T11:46:11.582Z,20.00
2019-04-28T11:51:13.442Z,19.52
2019-04-28T11:56:15.419Z,19.53
2019-04-28T12:01:18.702Z,19.59
2019-04-28T12:06:20.602Z,19.55
2019-04-28T12:11:24.263Z,19.55
2019-04-28T12:16:44.860Z,19.37
2019-04-28T12:21:46.721Z,18.85
2019-04-28T12:26:48.575Z,19.21
2019-04-28T12:31:50.491Z,19.33
2019-04-28T12:36:53.949Z,19.30
2019-04-28T12:41:56.414Z,19.65
2019-04-28T12:46:58.665Z,19.45
2019-04-28T12:52:01.416Z,19.25
2019-04-28T12:57:03.475Z,19.44
2019-04-28T13:02:07.695Z,19.33
2019-04-28T13:07:10.029Z,19.29
2019-04-28T13:12:12.186Z,18.81
2019-04-28T13:17:14.139Z,18.96
2019-04-28T13:22:16.868Z,18.92
2019-04-28T13:27:19.559Z,18.92
2019-04-28T13:32:22.024Z,18.97
2019-04-28T13:37:25.996Z,19.03
2019-04-28T13:42:28.215Z,18.92
2019-04-28T13:47:30.594Z,18.87
2019-04-28T13:52:33.805Z,18.86
2019-04-28T13:57:36.324Z,19.09
2019-04-28T14:02:54.877Z,18.72
2019-04-28T14:07:58.016Z,18.55
2019-04-28T14:13:02.565Z,18.47
2019-04-28T14:18:08.531Z,18.39
2019-04-28T14:23:11.569Z,18.28
2019-04-28T14:28:15.353Z,18.26
2019-04-28T14:33:19.052Z,18.35
2019-04-28T14:38:21.531Z,18.29
2019-04-28T14:43:23.816Z,18.44
2019-04-28T14:48:26.233Z,18.57
2019-04-28T14:53:28.737Z,18.70
2019-04-28T14:58:32.282Z,18.88
2019-04-28T15:03:39.271Z,18.79
2019-04-28T15:08:46.508Z,18.61
2019-04-28T15:13:49.490Z,18.82
2019-04-28T15:18:51.826Z,18.75
2019-04-28T15:23:54.445Z,18.58
2019-04-28T15:28:57.470Z,18.50
2019-04-28T15:34:03.609Z,18.51
2019-04-28T15:39:08.214Z,18.62
2019-04-28T15:44:10.878Z,18.76
2019-04-28T15:49:17.105Z,18.75
2019-04-28T15:54:19.938Z,18.70
2019-04-28T15:59:22.334Z,18.67
2019-04-28T16:04:24.568Z,18.44
2019-04-28T16:09:26.895Z,18.39
2019-04-28T16:14:30.847Z,18.18
2019-04-28T16:19:36.481Z,18.21
2019-04-28T16:24:38.560Z,18.00
2019-04-28T16:29:40.480Z,17.87
2019-04-28T16:34:42.470Z,17.60
2019-04-28T16:39:45.511Z,17.49
2019-04-28T16:44:54.009Z,17.30
2019-04-28T16:49:57.863Z,17.06
2019-04-28T16:55:18.185Z,17.05
2019-04-28T17:00:27.892Z,16.88
2019-04-28T17:05:30.578Z,16.75
2019-04-28T17:10:33.077Z,16.69
2019-04-28T17:15:35.057Z,16.56
2019-04-28T17:20:37.906Z,16.45
2019-04-28T17:25:40.398Z,16.40
2019-04-28T17:30:45.473Z,16.15
2019-04-28T17:35:48.043Z,16.14
2019-04-28T17:40:50.611Z,15.88
2019-04-28T17:45:56.118Z,15.61
2019-04-28T17:50:58.724Z,15.47
2019-04-28T17:56:03.329Z,15.32
2019-04-28T18:01:15.499Z,14.42
2019-04-28T18:06:22.346Z,14.39
2019-04-28T18:11:26.509Z,14.32
2019-04-28T18:16:47.187Z,14.25
2019-04-28T18:21:49.826Z,14.39
2019-04-28T18:26:52.660Z,14.27
2019-04-28T18:31:59.761Z,14.31
2019-04-28T18:37:10.014Z,14.37
2019-04-28T18:42:22.244Z,14.30
2019-04-28T18:47:24.831Z,14.20
2019-04-28T18:52:27.055Z,13.93
2019-04-28T18:57:28.976Z,13.98
2019-04-28T19:02:36.097Z,13.88
2019-04-28T19:07:40.251Z,13.48
2019-04-28T19:13:01.026Z,13.01
2019-04-28T19:18:05.214Z,12.80
2019-04-28T19:23:08.677Z,13.03
2019-04-28T19:28:10.992Z,13.05
2019-04-28T19:33:13.613Z,13.20
2019-04-28T19:38:15.729Z,13.13
2019-04-28T19:43:17.804Z,12.93
2019-04-28T19:48:20.045Z,12.94
2019-04-28T19:53:53.451Z,12.46
2019-04-28T19:58:57.439Z,12.06
2019-04-28T20:03:59.809Z,11.83
2019-04-28T20:09:01.867Z,11.97
2019-04-28T20:14:05.663Z,12.08
2019-04-28T20:19:07.741Z,12.19
2019-04-28T20:24:10.843Z,12.25
2019-04-28T20:29:12.850Z,12.19
2019-04-28T20:34:14.979Z,12.31
2019-04-28T20:39:24.609Z,11.83
2019-04-28T20:44:28.255Z,11.71
2019-04-28T20:49:30.262Z,11.98
2019-04-28T20:54:32.308Z,11.75
2019-04-28T20:59:35.380Z,11.69
2019-04-28T21:04:37.715Z,11.70
2019-04-28T21:09:40.095Z,10.80
2019-04-28T21:14:42.059Z,10.77
2019-04-28T21:19:52.389Z,10.81
2019-04-28T21:24:54.816Z,10.97
2019-04-28T21:29:56.981Z,11.12
2019-04-28T21:34:58.947Z,11.29
2019-04-28T21:40:01.141Z,11.15
2019-04-28T21:45:19.764Z,11.09
2019-04-28T21:50:21.878Z,11.06
2019-04-28T21:55:23.952Z,11.11
2019-04-28T22:00:38.383Z,10.87
2019-04-28T22:05:58.854Z,10.64
2019-04-28T22:11:01.174Z,10.67
2019-04-28T22:16:04.285Z,10.41
2019-04-28T22:21:06.392Z,10.56
2019-04-28T22:26:11.374Z,10.68
2019-04-28T22:31:13.364Z,10.47
2019-04-28T22:36:15.340Z,10.57
2019-04-28T22:41:17.449Z,10.61
2019-04-28T22:46:19.434Z,10.62
2019-04-28T22:51:22.314Z,10.16
2019-04-28T22:56:26.096Z,10.25
2019-04-28T23:01:38.868Z,9.81
2019-04-28T23:06:40.978Z,10.16
2019-04-28T23:11:43.202Z,10.23
2019-04-28T23:16:45.037Z,10.01
2019-04-28T23:21:54.506Z,10.18
2019-04-28T23:26:56.458Z,10.19
2019-04-28T23:31:58.324Z,10.06
2019-04-28T23:37:00.385Z,10.17
2019-04-28T23:42:04.136Z,9.53
2019-04-28T23:47:07.194Z,9.38
2019-04-28T23:52:14.081Z,9.52
2019-04-28T23:57:16.033Z,9.46
